createdAt,value
2022-11-29T16:54:24.085Z,83.34
2022-11-29T16:57:29.891Z,81.25
2022-11-29T17:00:34.539Z,81.81
2022-11-29T17:03:38.114Z,79.88
2022-11-29T17:06:41.774Z,80.45
2022-11-29T17:09:46.787Z,79.28
2022-11-29T17:12:50.823Z,80.01
2022-11-29T17:15:54.873Z,79.38
2022-11-29T17:18:58.459Z,80.60
2022-11-29T17:22:02.498Z,80.96
2022-11-29T17:25:08.399Z,81.34
2022-11-29T17:28:12.059Z,79.65
2022-11-29T17:31:17.359Z,79.51
2022-11-29T17:34:20.981Z,79.39
2022-11-29T17:37:24.604Z,80.00
2022-11-29T17:40:29.590Z,79.73
2022-11-29T17:43:34.496Z,80.23
2022-11-29T17:46:38.306Z,80.56
2022-11-29T17:49:42.094Z,79.66
2022-11-29T17:52:45.989Z,80.08
2022-11-29T17:55:50.946Z,80.35
2022-11-29T17:58:56.463Z,80.65
2022-11-29T18:02:02.055Z,78.93
2022-11-29T18:05:06.375Z,80.68
2022-11-29T18:08:09.972Z,79.67
2022-11-29T18:11:17.950Z,80.25
2022-11-29T18:14:24.078Z,81.07
2022-11-29T18:17:27.836Z,81.54
2022-11-29T18:20:31.388Z,80.31
2022-11-29T18:23:36.984Z,80.86
2022-11-29T18:26:42.316Z,79.92
2022-11-29T18:29:45.971Z,81.24
2022-11-29T18:32:49.740Z,80.36
2022-11-29T18:35:53.306Z,79.97
2022-11-29T18:38:58.605Z,80.63
2022-11-29T18:42:03.545Z,81.95
2022-11-29T18:45:08.504Z,81.34
2022-11-29T18:48:12.224Z,81.14
2022-11-29T18:51:17.861Z,80.09
2022-11-29T18:54:21.449Z,81.71
2022-11-29T18:57:26.385Z,80.68
2022-11-29T19:00:30.012Z,81.14
2022-11-29T19:03:35.697Z,81.04
2022-11-29T19:06:40.291Z,79.82
2022-11-29T19:09:44.058Z,79.87
2022-11-29T19:12:48.982Z,80.65
2022-11-29T19:15:54.147Z,80.09
2022-11-29T19:18:59.056Z,79.74
2022-11-29T19:22:02.733Z,79.68
2022-11-29T19:25:07.293Z,80.10
2022-11-29T19:28:14.307Z,79.22
2022-11-29T19:31:20.237Z,80.13
2022-11-29T19:34:24.008Z,79.24
2022-11-29T19:37:27.591Z,80.02
2022-11-29T19:40:31.445Z,79.18
2022-11-29T19:43:36.832Z,79.26
2022-11-29T19:46:42.361Z,80.04
2022-11-29T19:49:46.900Z,78.28
2022-11-29T19:52:50.677Z,79.58
2022-11-29T19:55:55.107Z,78.82
2022-11-29T19:59:01.107Z,77.53
2022-11-29T20:02:04.849Z,77.60
2022-11-29T20:05:09.513Z,78.07
2022-11-29T20:08:15.938Z,77.74
2022-11-29T20:11:25.144Z,78.34
2022-11-29T20:14:30.094Z,77.31
2022-11-29T20:17:33.821Z,79.21
2022-11-29T20:20:37.501Z,78.92
2022-11-29T20:23:42.211Z,79.23
2022-11-29T20:26:48.481Z,78.65
2022-11-29T20:29:53.435Z,78.01
2022-11-29T20:32:57.233Z,77.72
2022-11-29T20:36:09.384Z,77.73
2022-11-29T20:39:21.534Z,77.94
2022-11-29T20:42:59.139Z,77.82
2022-11-29T20:46:04.555Z,79.39
2022-11-29T20:49:09.741Z,79.12
2022-11-29T20:52:28.483Z,77.79
2022-11-29T20:55:32.164Z,77.88
2022-11-29T20:58:36.240Z,77.63
2022-11-29T21:01:41.416Z,77.15
2022-11-29T21:04:45.379Z,81.20
2022-11-29T21:07:49.392Z,82.83
2022-11-29T21:10:53.675Z,81.10
2022-11-29T21:13:57.795Z,80.28
2022-11-29T21:17:03.701Z,82.34
2022-11-29T21:20:09.049Z,82.29
2022-11-29T21:23:21.103Z,83.32
2022-11-29T21:26:31.750Z,82.63
2022-11-29T21:29:36.048Z,81.87
2022-11-29T21:32:41.894Z,81.35
2022-11-29T21:35:45.541Z,82.17
2022-11-29T21:38:54.731Z,80.48
2022-11-29T21:41:58.793Z,80.19
2022-11-29T21:45:02.446Z,81.44
2022-11-29T21:48:28.578Z,80.40
2022-11-29T21:51:32.132Z,81.91
2022-11-29T23:48:00.825Z,85.59
2022-11-29T23:51:04.884Z,83.81
